Time;durP1;ratioP1;P1;durP2;ratioP2;P2;SDS_P1;SDS_P2;PMS_P1;PMS_P2;Temp;Humidity;BMP_temperature;BMP_pressure;BME280_temperature;BME280_humidity;BME280_pressure;Samples;Min_cycle;Max_cycle;Signal;HPM_P1;HPM_P2
2022/03/19 00:01:20;;;;;;;45.97;33.47;;;7.60;74.20;;;;;;5113980;28;20101;-79
2022/03/19 00:03:46;;;;;;;45.00;33.28;;;7.50;74.20;;;;;;5115430;28;20031;-79
2022/03/19 00:06:11;;;;;;;49.97;34.65;;;7.60;74.60;;;;;;5115761;28;20024;-80
2022/03/19 00:08:37;;;;;;;43.47;32.75;;;7.60;74.40;;;;;;5114215;28;20024;-79
2022/03/19 00:11:03;;;;;;;45.95;34.83;;;7.50;73.80;;;;;;5115570;28;20032;-79
2022/03/19 00:13:31;;;;;;;45.38;34.65;;;7.50;73.80;;;;;;5115186;28;20472;-79
2022/03/19 00:15:56;;;;;;;46.10;33.90;;;7.60;74.00;;;;;;5115503;28;20406;-79
2022/03/19 00:18:24;;;;;;;46.72;34.17;;;7.60;73.70;;;;;;5114945;28;20056;-79
2022/03/19 00:20:50;;;;;;;46.85;34.33;;;7.60;73.80;;;;;;5114133;28;20050;-79
2022/03/19 00:23:16;;;;;;;51.58;34.83;;;7.50;73.20;;;;;;5115572;28;20127;-88
2022/03/19 00:25:42;;;;;;;47.85;34.33;;;7.50;73.60;;;;;;5114480;28;20035;-79
2022/03/19 00:28:08;;;;;;;46.65;34.63;;;7.50;73.60;;;;;;5118428;28;20031;-79
2022/03/19 00:30:34;;;;;;;45.80;34.45;;;7.50;73.20;;;;;;5127058;28;20107;-79
2022/03/19 00:32:59;;;;;;;53.47;33.80;;;7.50;73.60;;;;;;5114883;28;20027;-79
2022/03/19 00:35:25;;;;;;;55.38;35.28;;;7.50;73.20;;;;;;5114394;28;20023;-80
2022/03/19 00:37:53;;;;;;;53.58;36.45;;;7.40;74.00;;;;;;5113802;28;20384;-79
2022/03/19 00:40:21;;;;;;;48.28;36.08;;;7.40;74.50;;;;;;5113259;28;20472;-80
2022/03/19 00:42:48;;;;;;;58.28;37.42;;;7.30;74.50;;;;;;5115008;27;20030;-78
2022/03/19 00:45:14;;;;;;;48.58;36.80;;;7.30;75.00;;;;;;5115143;28;20035;-78
2022/03/19 00:47:40;;;;;;;49.70;36.00;;;7.30;75.40;;;;;;5114183;28;20072;-77
2022/03/19 00:50:07;;;;;;;50.25;36.28;;;7.30;75.10;;;;;;5114992;28;20059;-79
2022/03/19 00:52:33;;;;;;;49.22;35.55;;;7.30;75.30;;;;;;5113048;28;20042;-79
2022/03/19 00:54:59;;;;;;;48.35;35.92;;;7.30;75.50;;;;;;5114415;28;20069;-77
2022/03/19 00:57:24;;;;;;;50.35;35.15;;;7.30;75.10;;;;;;5114131;28;20028;-78
2022/03/19 01:00:11;;;;;;;48.65;34.97;;;7.30;75.20;;;;;;5114261;28;20024;-78
2022/03/19 01:02:40;;;;;;;45.95;35.15;;;7.30;74.50;;;;;;5114241;28;20081;-78
2022/03/19 01:05:07;;;;;;;47.92;33.63;;;7.30;74.90;;;;;;5114714;28;20016;-78
2022/03/19 01:07:40;;;;;;;47.28;35.20;;;7.30;75.10;;;;;;5114247;28;20023;-78
2022/03/19 01:10:06;;;;;;;49.78;35.30;;;7.30;74.60;;;;;;5114665;28;20110;-79
2022/03/19 01:12:32;;;;;;;45.17;33.88;;;7.30;74.30;;;;;;5114022;28;20112;-79
2022/03/19 01:14:58;;;;;;;47.15;34.75;;;7.30;73.70;;;;;;5114101;28;20081;-78
2022/03/19 01:17:23;;;;;;;47.00;34.95;;;7.30;73.90;;;;;;5113977;28;20414;-80
2022/03/19 01:19:55;;;;;;;48.90;35.17;;;7.30;73.60;;;;;;5113633;28;20027;-78
2022/03/19 01:22:21;;;;;;;50.47;34.95;;;7.30;73.40;;;;;;5114051;28;20023;-86
2022/03/19 01:24:47;;;;;;;47.63;35.15;;;7.30;73.90;;;;;;5112870;28;20370;-78
2022/03/19 01:27:13;;;;;;;47.95;34.10;;;7.20;73.30;;;;;;5112839;28;20521;-78
2022/03/19 01:29:39;;;;;;;48.30;33.63;;;7.20;72.30;;;;;;5113395;28;20035;-79
2022/03/19 01:32:05;;;;;;;43.63;33.13;;;7.20;71.50;;;;;;5114037;28;20102;-78
2022/03/19 01:34:30;;;;;;;42.83;33.65;;;7.20;70.80;;;;;;5112323;28;20039;-78
2022/03/19 01:36:56;;;;;;;51.00;35.35;;;7.20;70.80;;;;;;5112832;28;20026;-78
2022/03/19 01:39:22;;;;;;;51.08;33.47;;;7.10;70.00;;;;;;5113541;28;20347;-81
2022/03/19 01:41:47;;;;;;;46.50;33.00;;;7.10;70.00;;;;;;5112686;28;20085;-78
2022/03/19 01:44:22;;;;;;;51.55;33.92;;;7.10;70.10;;;;;;5113517;28;20046;-79
2022/03/19 01:46:58;;;;;;;48.33;34.45;;;7.10;70.30;;;;;;5113729;28;20027;-79
2022/03/19 01:49:24;;;;;;;45.15;34.33;;;7.10;69.90;;;;;;5111848;28;20112;-80
2022/03/19 01:51:50;;;;;;;51.88;35.17;;;7.00;70.30;;;;;;5113335;28;20035;-79
2022/03/19 01:54:16;;;;;;;47.97;33.88;;;7.00;70.60;;;;;;5113800;28;20024;-78
2022/03/19 01:56:44;;;;;;;47.90;33.85;;;7.00;70.60;;;;;;5111944;28;20250;-79
2022/03/19 01:59:11;;;;;;;47.45;33.35;;;7.10;70.80;;;;;;5113640;28;20068;-79
2022/03/19 02:01:37;;;;;;;52.13;36.30;;;7.10;70.70;;;;;;5113390;28;20036;-78
2022/03/19 02:04:04;;;;;;;45.42;33.35;;;7.10;70.40;;;;;;5113295;28;20453;-78
2022/03/19 02:06:31;;;;;;;51.28;34.47;;;7.00;70.10;;;;;;5111562;28;20039;-78
2022/03/19 02:08:58;;;;;;;47.58;33.30;;;7.00;69.70;;;;;;5112325;28;20054;-78
2022/03/19 02:11:26;;;;;;;49.70;32.53;;;7.00;68.80;;;;;;5112511;28;20533;-80
2022/03/19 02:13:52;;;;;;;46.45;31.90;;;7.00;66.90;;;;;;5113208;28;20031;-79
2022/03/19 02:16:19;;;;;;;45.83;30.75;;;7.00;66.00;;;;;;5112157;28;20475;-79
2022/03/19 02:18:44;;;;;;;46.50;31.33;;;7.00;65.50;;;;;;5112426;28;20084;-79
2022/03/19 02:21:10;;;;;;;44.58;30.30;;;6.90;64.80;;;;;;5111860;28;20035;-78
2022/03/19 02:26:20;;;;;;;42.60;28.70;;;6.90;63.20;;;;;;5112955;28;20038;-79
2022/03/19 02:28:46;;;;;;;45.55;29.25;;;6.90;62.10;;;;;;5112623;28;20458;-79
2022/03/19 02:31:11;;;;;;;46.10;30.65;;;6.90;61.50;;;;;;5113276;28;20365;-78
2022/03/19 02:33:37;;;;;;;42.53;28.13;;;6.90;61.60;;;;;;5111294;28;20432;-79
2022/03/19 02:36:03;;;;;;;41.65;28.70;;;6.90;61.70;;;;;;5111661;28;20115;-78
2022/03/19 02:38:28;;;;;;;42.35;28.38;;;6.80;61.00;;;;;;5112702;28;20024;-78
2022/03/19 02:40:54;;;;;;;37.90;27.60;;;6.80;61.60;;;;;;5113022;28;20032;-79
2022/03/19 02:43:20;;;;;;;46.22;28.40;;;6.80;61.20;;;;;;5112803;28;20388;-78
2022/03/19 02:45:48;;;;;;;42.85;30.05;;;6.80;61.60;;;;;;5112261;28;20023;-79
2022/03/19 02:48:14;;;;;;;41.25;29.08;;;6.70;61.10;;;;;;5112832;28;20031;-78
2022/03/19 02:50:39;;;;;;;44.10;29.02;;;6.70;61.00;;;;;;5112362;28;20406;-78
2022/03/19 02:53:07;;;;;;;40.80;28.48;;;6.70;61.00;;;;;;5113279;28;20039;-78
2022/03/19 02:55:34;;;;;;;43.05;29.20;;;6.70;60.80;;;;;;5110919;28;20067;-79
2022/03/19 02:58:01;;;;;;;42.33;28.92;;;6.60;61.30;;;;;;5113076;28;20116;-78
2022/03/19 03:00:27;;;;;;;43.92;29.80;;;6.60;61.20;;;;;;5112613;28;20127;-86
2022/03/19 03:02:52;;;;;;;44.33;29.13;;;6.60;61.70;;;;;;5112734;28;20055;-79
2022/03/19 03:05:18;;;;;;;46.00;29.85;;;6.60;61.60;;;;;;5112521;28;20468;-79
2022/03/19 03:07:43;;;;;;;46.92;30.35;;;6.60;62.00;;;;;;5110710;28;20028;-79
2022/03/19 03:10:10;;;;;;;40.97;29.40;;;6.60;62.10;;;;;;5112625;28;20034;-78
2022/03/19 03:12:36;;;;;;;44.08;29.95;;;6.60;62.30;;;;;;5112365;28;20038;-78
2022/03/19 03:15:02;;;;;;;52.00;31.08;;;6.60;62.30;;;;;;5112788;28;20023;-79
2022/03/19 03:17:28;;;;;;;41.72;28.90;;;6.50;62.60;;;;;;5112312;28;20027;-87
2022/03/19 03:19:54;;;;;;;42.70;30.15;;;6.50;63.80;;;;;;5112404;28;20059;-79
2022/03/19 03:22:20;;;;;;;43.10;29.73;;;6.50;65.30;;;;;;5112409;28;20059;-79
2022/03/19 03:24:45;;;;;;;44.45;30.35;;;6.50;66.70;;;;;;5110732;28;20072;-79
2022/03/19 03:27:11;;;;;;;44.28;30.88;;;6.50;67.90;;;;;;5112206;28;20019;-79
2022/03/19 03:29:37;;;;;;;41.47;30.35;;;6.50;68.90;;;;;;5110771;28;20376;-79
2022/03/19 03:32:04;;;;;;;44.63;31.80;;;6.40;69.70;;;;;;5112180;28;20464;-79
2022/03/19 03:34:29;;;;;;;41.42;31.23;;;6.40;70.20;;;;;;5110696;28;20024;-81
2022/03/19 03:36:55;;;;;;;42.75;30.75;;;6.30;70.70;;;;;;5112311;28;20027;-79
2022/03/19 03:39:20;;;;;;;43.15;32.78;;;6.30;71.30;;;;;;5110800;28;20066;-78
2022/03/19 03:41:47;;;;;;;47.50;32.28;;;6.20;72.00;;;;;;5111996;28;20034;-77
2022/03/19 03:44:13;;;;;;;42.97;32.38;;;6.20;72.50;;;;;;5114768;28;20414;-78
2022/03/19 03:46:39;;;;;;;40.03;30.13;;;6.10;72.80;;;;;;5115468;28;20024;-78
2022/03/19 03:49:04;;;;;;;48.25;32.00;;;6.10;73.00;;;;;;5114863;28;20020;-78
2022/03/19 03:51:30;;;;;;;42.25;32.85;;;6.00;73.20;;;;;;5114090;28;20452;-86
2022/03/19 03:53:56;;;;;;;46.38;33.72;;;6.00;73.80;;;;;;5114436;28;20059;-78
2022/03/19 03:56:21;;;;;;;43.65;31.42;;;6.00;74.20;;;;;;5115938;28;20069;-78
2022/03/19 03:58:48;;;;;;;45.50;33.03;;;6.00;74.30;;;;;;5115392;28;20059;-78
2022/03/19 04:01:13;;;;;;;42.25;31.65;;;6.00;74.30;;;;;;5115501;28;20028;-79
2022/03/19 04:03:39;;;;;;;44.42;32.10;;;6.00;74.70;;;;;;5113895;28;20479;-78
2022/03/19 04:06:05;;;;;;;46.10;32.25;;;5.90;74.50;;;;;;5115740;28;20483;-78
2022/03/19 04:08:31;;;;;;;41.72;32.28;;;5.90;75.10;;;;;;5115562;28;20027;-77
2022/03/19 04:10:57;;;;;;;47.65;33.30;;;5.90;75.20;;;;;;5115564;28;20023;-78
2022/03/19 04:13:22;;;;;;;49.88;33.03;;;5.90;75.40;;;;;;5115424;28;20027;-79
2022/03/19 04:15:50;;;;;;;45.45;32.20;;;5.90;75.50;;;;;;5113300;28;20123;-78
2022/03/19 04:18:15;;;;;;;47.78;32.63;;;5.80;75.40;;;;;;5113984;28;20529;-79
2022/03/19 04:20:41;;;;;;;46.08;34.47;;;5.80;75.20;;;;;;5113544;28;20031;-78
2022/03/19 04:23:08;;;;;;;52.33;34.55;;;5.70;75.40;;;;;;5115379;28;20035;-79
2022/03/19 04:25:34;;;;;;;47.15;34.38;;;5.70;75.20;;;;;;5113703;28;20085;-80
2022/03/19 04:27:59;;;;;;;52.42;35.45;;;5.70;75.30;;;;;;5115201;28;20464;-79
2022/03/19 04:30:27;;;;;;;46.08;34.10;;;5.70;75.20;;;;;;5115333;28;20107;-79
2022/03/19 04:32:54;;;;;;;51.95;36.65;;;5.60;75.30;;;;;;5113481;28;20314;-79
2022/03/19 04:38:08;;;;;;;49.72;36.17;;;5.60;75.30;;;;;;5114930;28;20085;-78
2022/03/19 04:40:35;;;;;;;48.88;34.65;;;5.60;75.30;;;;;;5114577;28;20134;-83
2022/03/19 04:43:01;;;;;;;47.25;34.47;;;5.60;75.70;;;;;;5114700;28;20127;-79
2022/03/19 04:45:27;;;;;;;53.97;34.80;;;5.50;75.50;;;;;;5114947;28;20034;-79
2022/03/19 04:47:54;;;;;;;48.42;34.28;;;5.50;75.40;;;;;;5114501;28;20318;-79
2022/03/19 04:50:20;;;;;;;50.63;35.85;;;5.50;75.20;;;;;;5114817;28;20061;-79
2022/03/19 04:52:47;;;;;;;50.85;36.72;;;5.50;75.50;;;;;;5114362;28;20024;-78
2022/03/19 04:55:13;;;;;;;51.00;36.67;;;5.50;75.70;;;;;;5114457;28;20127;-79
2022/03/19 04:57:38;;;;;;;53.55;37.50;;;5.50;76.10;;;;;;5114397;28;20468;-79
2022/03/19 05:00:07;;;;;;;55.70;37.83;;;5.50;76.20;;;;;;5113252;28;20031;-78
2022/03/19 05:02:33;;;;;;;53.75;35.47;;;5.40;76.40;;;;;;5114652;27;20080;-78
2022/03/19 05:04:58;;;;;;;54.38;36.78;;;5.40;76.20;;;;;;5112695;28;20066;-78
2022/03/19 05:07:25;;;;;;;52.42;37.03;;;5.40;76.00;;;;;;5114069;28;20051;-79
2022/03/19 05:12:39;;;;;;;55.75;37.58;;;5.40;76.10;;;;;;5114432;28;20070;-79
2022/03/19 05:15:06;;;;;;;54.97;38.38;;;5.40;76.40;;;;;;5114238;28;20028;-79
2022/03/19 05:17:32;;;;;;;51.15;37.22;;;5.40;76.30;;;;;;5113094;28;20035;-78
2022/03/19 05:19:57;;;;;;;57.75;38.35;;;5.50;76.60;;;;;;5112409;28;20035;-78
2022/03/19 05:22:23;;;;;;;53.42;37.47;;;5.40;76.30;;;;;;5113803;28;20024;-79
2022/03/19 05:24:49;;;;;;;51.33;36.33;;;5.40;76.60;;;;;;5113712;28;20152;-78
2022/03/19 05:27:14;;;;;;;57.38;37.80;;;5.50;76.70;;;;;;5112851;28;20425;-79
2022/03/19 05:29:40;;;;;;;51.63;36.67;;;5.50;76.60;;;;;;5113660;28;20536;-78
2022/03/19 05:32:07;;;;;;;52.83;37.70;;;5.50;76.70;;;;;;5112546;28;20024;-78
2022/03/19 05:34:34;;;;;;;52.58;37.72;;;5.50;76.50;;;;;;5112617;28;20031;-79
2022/03/19 05:37:01;;;;;;;50.03;37.33;;;5.50;77.10;;;;;;5113341;28;20038;-79
2022/03/19 05:39:27;;;;;;;54.03;37.58;;;5.60;76.90;;;;;;5113492;28;20030;-78
2022/03/19 05:41:54;;;;;;;53.22;38.30;;;5.60;76.70;;;;;;5113053;28;20031;-79
2022/03/19 05:44:20;;;;;;;54.63;38.70;;;5.60;76.60;;;;;;5113784;28;20024;-78
2022/03/19 05:46:47;;;;;;;56.88;38.42;;;5.70;76.70;;;;;;5111433;28;20034;-79
2022/03/19 05:49:13;;;;;;;52.53;37.78;;;5.70;76.00;;;;;;5113763;28;20138;-80
2022/03/19 05:51:39;;;;;;;53.45;36.78;;;5.80;76.20;;;;;;5113019;28;20032;-82
2022/03/19 05:54:05;;;;;;;53.97;38.28;;;5.90;76.40;;;;;;5113173;28;20076;-79
2022/03/19 05:56:30;;;;;;;50.15;37.22;;;5.90;75.40;;;;;;5113451;28;20115;-81
2022/03/19 05:58:56;;;;;;;50.67;37.22;;;6.00;75.00;;;;;;5111294;28;20028;-79
2022/03/19 06:01:26;;;;;;;54.78;36.83;;;6.10;73.60;;;;;;5111733;28;20031;-78
2022/03/19 06:03:56;;;;;;;51.20;37.60;;;6.20;72.80;;;;;;5111595;28;20105;-79
2022/03/19 06:06:23;;;;;;;54.70;39.28;;;6.20;72.10;;;;;;5112444;28;20036;-78
2022/03/19 06:08:49;;;;;;;52.15;38.03;;;6.20;71.80;;;;;;5111421;28;20456;-78
2022/03/19 06:11:15;;;;;;;52.10;36.53;;;6.30;71.30;;;;;;5111997;28;20043;-78
2022/03/19 06:13:41;;;;;;;50.22;36.50;;;6.30;71.00;;;;;;5111461;28;20024;-79
2022/03/19 06:16:07;;;;;;;50.03;36.47;;;6.40;70.50;;;;;;5112005;28;20028;-79
2022/03/19 06:18:33;;;;;;;50.72;35.70;;;6.40;70.10;;;;;;5112996;28;20019;-79
2022/03/19 06:20:58;;;;;;;52.33;35.63;;;6.50;70.00;;;;;;5112340;27;20030;-79
2022/03/19 06:23:25;;;;;;;48.20;34.55;;;6.50;69.60;;;;;;5113337;28;20039;-79
2022/03/19 06:25:51;;;;;;;51.55;35.53;;;6.60;68.70;;;;;;5112669;28;20039;-77
2022/03/19 06:28:17;;;;;;;50.92;36.38;;;6.60;68.50;;;;;;5112696;28;20024;-79
2022/03/19 06:30:43;;;;;;;49.95;34.70;;;6.70;68.30;;;;;;5112528;28;20445;-79
2022/03/19 06:33:09;;;;;;;53.30;34.97;;;6.80;67.20;;;;;;5112874;28;20043;-78
2022/03/19 06:38:23;;;;;;;49.40;34.35;;;6.90;66.80;;;;;;5112802;28;20050;-80
2022/03/19 06:40:49;;;;;;;47.88;35.30;;;7.00;66.60;;;;;;5112351;28;20081;-77
2022/03/19 06:43:15;;;;;;;49.53;34.55;;;7.10;65.40;;;;;;5111512;28;20023;-78
2022/03/19 06:45:40;;;;;;;47.60;34.28;;;7.20;64.80;;;;;;5112433;28;20033;-78
2022/03/19 06:48:06;;;;;;;44.45;32.05;;;7.20;64.20;;;;;;5112724;28;20062;-78
2022/03/19 06:50:32;;;;;;;47.53;32.95;;;7.30;63.00;;;;;;5112681;28;20032;-78
2022/03/19 06:52:57;;;;;;;44.33;31.60;;;7.30;61.10;;;;;;5112549;28;20031;-79
2022/03/19 06:55:23;;;;;;;38.97;26.65;;;7.40;61.20;;;;;;5111337;28;20089;-79
2022/03/19 06:57:49;;;;;;;42.67;30.45;;;7.50;58.10;;;;;;5112363;28;20127;-79
2022/03/19 07:00:15;;;;;;;43.78;29.88;;;7.50;57.10;;;;;;5111502;28;20118;-79
2022/03/19 07:02:47;;;;;;;36.25;24.70;;;7.60;58.20;;;;;;5112513;28;20211;-78
2022/03/19 07:05:18;;;;;;;36.97;23.48;;;7.70;54.70;;;;;;5112490;28;20103;-79
2022/03/19 07:07:43;;;;;;;34.22;23.65;;;7.70;52.50;;;;;;5112086;28;20024;-81
2022/03/19 07:10:10;;;;;;;35.78;22.63;;;7.80;50.80;;;;;;5112301;28;20077;-79
2022/03/19 07:12:56;;;;;;;33.95;20.98;;;7.80;49.50;;;;;;5111314;28;20027;-79
2022/03/19 07:15:24;;;;;;;36.15;26.23;;;7.90;49.10;;;;;;5112510;28;20031;-79
2022/03/19 07:17:51;;;;;;;45.58;31.83;;;8.00;50.10;;;;;;5114480;28;20052;-79
2022/03/19 07:20:17;;;;;;;47.95;32.08;;;8.10;53.80;;;;;;5115116;28;20118;-79
2022/03/19 07:22:52;;;;;;;34.83;25.33;;;8.20;54.80;;;;;;5114855;28;20065;-84
2022/03/19 07:25:19;;;;;;;32.42;22.10;;;8.40;52.20;;;;;;5116238;28;20084;-79
2022/03/19 07:27:46;;;;;;;35.70;20.27;;;8.70;50.70;;;;;;5115912;28;20019;-78
2022/03/19 07:30:12;;;;;;;30.58;19.40;;;9.00;46.60;;;;;;5116388;28;20475;-78
2022/03/19 07:32:38;;;;;;;32.15;20.38;;;9.20;44.90;;;;;;5115838;28;20024;-79
2022/03/19 07:35:06;;;;;;;31.10;20.20;;;9.30;42.00;;;;;;5115878;28;20023;-79
2022/03/19 07:37:32;;;;;;;29.95;19.02;;;9.40;41.90;;;;;;5114874;28;20050;-76
2022/03/19 07:39:58;;;;;;;33.38;19.52;;;9.60;40.90;;;;;;5115588;28;20028;-78
2022/03/19 07:42:24;;;;;;;29.27;20.20;;;9.80;41.10;;;;;;5116074;28;20032;-77
2022/03/19 07:44:50;;;;;;;29.25;19.33;;;10.00;40.20;;;;;;5115517;28;20024;-78
2022/03/19 07:47:17;;;;;;;30.20;19.67;;;10.30;40.30;;;;;;5114642;28;20024;-78
2022/03/19 07:49:43;;;;;;;30.58;19.17;;;10.60;38.90;;;;;;5114477;28;20414;-78
2022/03/19 07:52:09;;;;;;;26.60;19.45;;;11.10;39.20;;;;;;5114782;28;20027;-78
2022/03/19 07:54:36;;;;;;;27.55;19.15;;;11.70;37.70;;;;;;5115134;28;20607;-78
2022/03/19 07:57:02;;;;;;;29.65;19.80;;;12.70;36.80;;;;;;5114551;28;20119;-78
2022/03/19 07:59:28;;;;;;;25.63;19.90;;;14.30;35.70;;;;;;5115573;28;20080;-78
2022/03/19 08:01:54;;;;;;;26.42;20.42;;;15.50;33.70;;;;;;5115382;28;20027;-78
2022/03/19 08:04:20;;;;;;;32.67;21.85;;;15.90;32.00;;;;;;5115342;28;20054;-79
2022/03/19 08:06:46;;;;;;;27.45;21.77;;;15.70;31.30;;;;;;5115178;28;20027;-88
2022/03/19 08:09:12;;;;;;;31.45;21.52;;;15.70;30.50;;;;;;5115786;28;20020;-78
2022/03/19 08:11:39;;;;;;;34.92;23.20;;;15.50;30.20;;;;;;5113931;28;20188;-78
2022/03/19 08:14:05;;;;;;;30.73;22.27;;;15.00;30.60;;;;;;5115279;27;20027;-80
2022/03/19 08:16:31;;;;;;;32.53;21.95;;;14.30;32.30;;;;;;5114222;28;20027;-74
2022/03/19 08:18:57;;;;;;;30.83;21.25;;;13.90;32.80;;;;;;5114846;28;20456;-80
2022/03/19 08:21:22;;;;;;;32.67;21.67;;;13.70;33.20;;;;;;5115518;28;20463;-77
2022/03/19 08:23:48;;;;;;;33.20;22.13;;;13.30;32.60;;;;;;5114548;28;20031;-73
2022/03/19 08:26:14;;;;;;;32.85;22.10;;;13.00;33.60;;;;;;5115134;28;20106;-73
2022/03/19 08:28:40;;;;;;;33.65;22.45;;;12.80;34.50;;;;;;5114592;28;20453;-74
2022/03/19 08:31:06;;;;;;;31.83;22.05;;;12.60;34.50;;;;;;5114386;28;20565;-74
2022/03/19 08:33:31;;;;;;;34.05;22.95;;;12.60;35.20;;;;;;5114886;28;20456;-75
2022/03/19 08:35:57;;;;;;;33.17;21.95;;;12.60;35.40;;;;;;5114471;28;20020;-73
2022/03/19 08:41:07;;;;;;;30.70;22.08;;;12.70;35.50;;;;;;5114059;28;20296;-75
2022/03/19 08:43:33;;;;;;;31.63;21.30;;;12.60;35.10;;;;;;5114795;28;20028;-74
2022/03/19 08:46:00;;;;;;;32.55;23.25;;;12.70;35.40;;;;;;5113019;28;20416;-74
2022/03/19 08:48:25;;;;;;;29.77;22.77;;;12.80;35.50;;;;;;5114590;28;20028;-74
2022/03/19 08:50:51;;;;;;;32.67;22.50;;;12.80;35.20;;;;;;5114534;28;20039;-75
2022/03/19 08:53:18;;;;;;;34.38;23.10;;;12.80;35.50;;;;;;5114696;28;20028;-75
2022/03/19 08:55:45;;;;;;;32.88;23.50;;;12.80;35.90;;;;;;5114217;28;20079;-74
2022/03/19 08:58:13;;;;;;;31.02;22.30;;;12.90;36.10;;;;;;5113946;28;20032;-74
2022/03/19 09:00:41;;;;;;;31.67;22.48;;;13.00;36.20;;;;;;5114486;28;20027;-75
2022/03/19 09:03:07;;;;;;;32.72;22.33;;;13.00;35.60;;;;;;5114051;28;20027;-74
2022/03/19 09:05:32;;;;;;;36.85;24.40;;;13.00;35.60;;;;;;5114439;28;20020;-73
2022/03/19 09:07:58;;;;;;;30.35;22.92;;;13.00;35.50;;;;;;5113124;28;20035;-74
2022/03/19 09:10:24;;;;;;;31.98;22.35;;;13.00;35.90;;;;;;5114343;28;20360;-74
2022/03/19 09:12:50;;;;;;;29.33;21.80;;;13.00;36.40;;;;;;5114060;28;20024;-75
2022/03/19 09:15:15;;;;;;;31.15;22.05;;;13.10;35.70;;;;;;5113930;28;20392;-74
2022/03/19 09:17:41;;;;;;;28.45;21.92;;;13.10;34.90;;;;;;5114208;28;20496;-74
2022/03/19 09:20:10;;;;;;;34.95;22.42;;;13.10;35.10;;;;;;5113569;28;20032;-74
2022/03/19 09:22:35;;;;;;;28.75;20.98;;;13.00;34.20;;;;;;5113769;28;20103;-74
2022/03/19 09:25:01;;;;;;;33.03;22.58;;;12.90;34.40;;;;;;5113234;28;20115;-74
2022/03/19 09:27:27;;;;;;;30.70;22.15;;;12.80;34.40;;;;;;5113350;28;20024;-74
2022/03/19 09:29:53;;;;;;;32.03;22.33;;;12.80;34.60;;;;;;5113247;28;20027;-75
2022/03/19 09:32:19;;;;;;;33.42;22.00;;;12.90;35.50;;;;;;5113579;28;20063;-73
2022/03/19 09:34:47;;;;;;;30.25;21.90;;;12.90;35.10;;;;;;5113923;28;20099;-75
2022/03/19 09:37:14;;;;;;;31.35;21.08;;;13.00;35.50;;;;;;5113357;28;20024;-75
2022/03/19 09:39:40;;;;;;;29.98;21.52;;;13.10;35.40;;;;;;5112864;28;20053;-75
2022/03/19 09:42:10;;;;;;;30.48;22.77;;;13.20;35.40;;;;;;5112845;28;20023;-75
2022/03/19 09:44:55;;;;;;;32.90;23.13;;;13.20;34.60;;;;;;5114002;28;20410;-74
2022/03/19 09:47:21;;;;;;;30.52;22.40;;;13.20;35.60;;;;;;5113566;28;20023;-75
2022/03/19 09:49:48;;;;;;;30.67;23.13;;;13.20;35.30;;;;;;5113345;28;20019;-75
2022/03/19 09:52:17;;;;;;;33.92;22.27;;;13.30;35.00;;;;;;5111700;28;20444;-73
2022/03/19 09:54:42;;;;;;;29.90;21.95;;;13.30;34.30;;;;;;5113340;28;20389;-75
2022/03/19 09:57:08;;;;;;;30.23;22.70;;;13.10;33.90;;;;;;5111068;28;20054;-75
2022/03/19 09:59:35;;;;;;;28.92;22.00;;;13.10;33.90;;;;;;5113130;28;20129;-75
2022/03/19 10:02:05;;;;;;;29.20;20.55;;;13.10;34.00;;;;;;5112629;28;20087;-80
2022/03/19 10:04:31;;;;;;;33.90;21.60;;;13.10;34.00;;;;;;5113762;28;20034;-84
2022/03/19 10:09:47;;;;;;;40.45;21.77;;;13.40;47.70;;;;;;5113573;28;20042;-79
2022/03/19 10:12:19;;;;;;;25.58;19.35;;;13.40;46.50;;;;;;5112921;28;20228;-78
2022/03/19 10:14:53;;;;;;;25.83;20.38;;;13.40;45.00;;;;;;5113942;28;20035;-84
2022/03/19 10:17:36;;;;;;;138.90;23.00;;;13.50;40.50;;;;;;5114150;27;20039;-76
2022/03/19 10:20:10;;;;;;;48.63;21.90;;;13.50;39.80;;;;;;5113334;28;20027;-79
2022/03/19 10:22:42;;;;;;;39.42;21.40;;;13.60;37.00;;;;;;5114810;28;20085;-82
2022/03/19 10:25:10;;;;;;;28.73;19.40;;;13.60;38.00;;;;;;5113090;28;20478;-78
2022/03/19 10:27:40;;;;;;;34.50;21.38;;;13.80;38.50;;;;;;5112911;28;20456;-77
2022/03/19 10:30:06;;;;;;;25.27;17.85;;;13.90;36.00;;;;;;5112987;28;20042;-78
2022/03/19 10:32:33;;;;;;;24.40;18.83;;;13.90;32.00;;;;;;5112576;28;20028;-79
2022/03/19 10:34:58;;;;;;;27.13;17.33;;;13.80;31.10;;;;;;5112357;28;20031;-79
2022/03/19 10:37:41;;;;;;;24.05;17.02;;;13.80;30.20;;;;;;5112273;28;20016;-78
2022/03/19 10:40:09;;;;;;;27.00;16.70;;;13.70;30.00;;;;;;5111956;28;20100;-77
2022/03/19 10:42:40;;;;;;;26.13;17.13;;;13.60;29.20;;;;;;5113189;28;20126;-79
2022/03/19 10:45:09;;;;;;;20.73;15.70;;;13.50;29.50;;;;;;5112971;28;20024;-78
2022/03/19 10:47:43;;;;;;;21.25;15.38;;;13.40;28.40;;;;;;5112763;28;20030;-78
2022/03/19 10:50:10;;;;;;;22.55;17.23;;;13.40;28.70;;;;;;5112089;28;20031;-78
2022/03/19 10:52:36;;;;;;;30.95;16.00;;;13.30;28.50;;;;;;5111318;28;20028;-78
2022/03/19 10:55:04;;;;;;;26.45;17.35;;;13.20;28.60;;;;;;5111786;28;20348;-78
2022/03/19 10:57:31;;;;;;;24.65;18.38;;;13.10;29.00;;;;;;5112863;28;20034;-77
2022/03/19 10:59:57;;;;;;;25.30;17.40;;;13.00;29.20;;;;;;5111474;28;20028;-79
2022/03/19 11:02:27;;;;;;;27.92;17.45;;;13.00;29.70;;;;;;5112541;28;20043;-78
2022/03/19 11:04:53;;;;;;;25.00;17.23;;;13.10;30.60;;;;;;5112973;28;20030;-75
2022/03/19 11:07:20;;;;;;;25.05;17.52;;;13.10;29.90;;;;;;5112129;28;20027;-78
2022/03/19 11:09:47;;;;;;;24.15;16.80;;;13.20;30.00;;;;;;5112578;28;20070;-77
2022/03/19 11:12:16;;;;;;;23.55;16.60;;;13.30;30.00;;;;;;5110647;28;20384;-79
2022/03/19 11:14:43;;;;;;;27.48;17.40;;;13.30;29.20;;;;;;5112325;28;20020;-77
2022/03/19 11:17:28;;;;;;;24.30;17.42;;;13.40;29.70;;;;;;5111823;28;20039;-77
2022/03/19 11:20:02;;;;;;;25.73;17.60;;;13.50;29.80;;;;;;5112080;28;20028;-77
2022/03/19 11:22:53;;;;;;;23.30;17.02;;;13.50;29.70;;;;;;5111904;28;20413;-78
2022/03/19 11:25:25;;;;;;;;;;;13.60;28.80;;;;;;5112526;28;20032;-77
2022/03/19 11:28:12;;;;;;;26.35;16.67;;;13.40;28.60;;;;;;5112194;28;19927;-77
2022/03/19 11:30:40;;;;;;;24.38;17.17;;;13.50;29.10;;;;;;5111226;28;20075;-77
2022/03/19 11:33:15;;;;;;;23.25;16.98;;;13.40;28.90;;;;;;5111527;28;20028;-76
2022/03/19 11:35:42;;;;;;;24.77;17.85;;;13.40;29.20;;;;;;5111825;28;20031;-78
2022/03/19 11:38:16;;;;;;;27.88;16.90;;;13.40;29.10;;;;;;5111010;28;20028;-77
2022/03/19 11:40:47;;;;;;;23.77;17.75;;;13.40;29.10;;;;;;5111721;28;20429;-77
2022/03/19 11:43:33;;;;;;;25.38;17.40;;;13.40;29.00;;;;;;5110407;28;20476;-77
2022/03/19 11:46:03;;;;;;;23.45;17.17;;;13.50;28.80;;;;;;5111306;28;20032;-77
2022/03/19 11:48:37;;;;;;;26.40;18.67;;;13.50;29.10;;;;;;5110517;28;20023;-77
2022/03/19 11:51:19;;;;;;;24.70;17.73;;;13.50;29.20;;;;;;5111039;28;20036;-77
2022/03/19 11:54:15;;;;;;;23.80;17.38;;;13.60;28.90;;;;;;5111728;28;20019;-78
2022/03/19 11:56:47;;;;;;;22.48;16.45;;;13.60;28.60;;;;;;5110278;28;20070;-78
2022/03/19 11:59:16;;;;;;;21.08;16.55;;;13.50;29.10;;;;;;5109994;28;20440;-76
2022/03/19 12:02:04;;;;;;;23.67;16.77;;;13.50;29.00;;;;;;5111740;28;20204;-77
2022/03/19 12:04:52;;;;;;;22.77;16.55;;;13.50;28.60;;;;;;5113263;28;20488;-76
2022/03/19 12:07:47;;;;;;;24.42;17.35;;;13.50;27.80;;;;;;5114419;28;20024;-77
2022/03/19 12:10:18;;;;;;;25.23;17.00;;;13.40;27.60;;;;;;5114833;28;20118;-77
2022/03/19 12:12:45;;;;;;;25.10;16.98;;;13.40;28.40;;;;;;5115031;28;20023;-77
2022/03/19 12:15:30;;;;;;;22.33;17.42;;;13.40;27.90;;;;;;5114551;28;20352;-76
2022/03/19 12:18:33;;;;;;;23.92;17.38;;;13.40;28.00;;;;;;5115003;28;20102;-76
2022/03/19 12:21:00;;;;;;;22.45;16.80;;;13.40;28.20;;;;;;5114378;28;20023;-78
2022/03/19 12:23:29;;;;;;;21.25;16.23;;;13.40;27.70;;;;;;5114624;28;20447;-77
2022/03/19 12:26:04;;;;;;;22.23;15.20;;;13.40;27.70;;;;;;5113444;28;20437;-76
2022/03/19 12:28:30;;;;;;;22.80;17.17;;;13.30;27.50;;;;;;5113469;28;20468;-76
2022/03/19 12:31:08;;;;;;;26.70;17.15;;;13.30;27.60;;;;;;5114538;27;20028;-76
2022/03/19 12:33:34;;;;;;;24.05;16.67;;;13.20;27.40;;;;;;5114878;28;20518;-77
2022/03/19 12:36:13;;;;;;;20.55;15.43;;;13.10;27.60;;;;;;5114076;28;20028;-79
2022/03/19 12:38:39;;;;;;;22.17;14.85;;;13.20;27.80;;;;;;5114829;28;20098;-78
2022/03/19 12:43:49;;;;;;;24.73;15.93;;;13.30;29.20;;;;;;5114448;28;20035;-78
2022/03/19 12:49:12;;;;;;;21.77;16.60;;;13.40;28.30;;;;;;5114067;28;20035;-76
2022/03/19 12:51:46;;;;;;;20.58;15.80;;;13.30;27.80;;;;;;5114336;28;20084;-76
2022/03/19 12:54:27;;;;;;;26.85;16.17;;;13.30;27.90;;;;;;5114118;28;20019;-77
2022/03/19 12:56:58;;;;;;;23.08;15.45;;;13.30;28.10;;;;;;5113939;28;20043;-76
2022/03/19 12:59:25;;;;;;;20.67;15.27;;;13.20;26.80;;;;;;5113872;28;20102;-76